sensor_id;sensor_type;location;lat;lon;timestamp;pressure;altitude;pressure_sealevel;temperature;humidity
56182;BME280;51963;46.052;14.544;2023-04-02T00:00:19;97347.81;;;4.10;100.00
56182;BME280;51963;46.052;14.544;2023-04-02T00:05:36;97353.88;;;4.03;100.00
56182;BME280;51963;46.052;14.544;2023-04-02T00:08:37;97352.28;;;3.93;100.00
56182;BME280;51963;46.052;14.544;2023-04-02T00:11:06;97344.47;;;3.85;100.00
56182;BME280;51963;46.052;14.544;2023-04-02T00:13:36;97348.91;;;3.85;100.00
56182;BME280;51963;46.052;14.544;2023-04-02T00:16:07;97344.31;;;3.87;100.00
56182;BME280;51963;46.052;14.544;2023-04-02T00:18:40;97340.88;;;3.86;100.00
56182;BME280;51963;46.052;14.544;2023-04-02T00:21:10;97344.47;;;3.85;100.00
56182;BME280;51963;46.052;14.544;2023-04-02T00:23:40;97338.25;;;3.86;100.00
56182;BME280;51963;46.052;14.544;2023-04-02T00:26:32;97337.91;;;3.89;100.00
56182;BME280;51963;46.052;14.544;2023-04-02T00:28:59;97330.06;;;3.89;100.00
56182;BME280;51963;46.052;14.544;2023-04-02T00:31:25;97336.59;;;4.48;100.00
56182;BME280;51963;46.052;14.544;2023-04-02T00:33:52;97340.16;;;4.79;100.00
56182;BME280;51963;46.052;14.544;2023-04-02T00:36:22;97334.31;;;4.92;100.00
56182;BME280;51963;46.052;14.544;2023-04-02T00:38:49;97340.13;;;5.02;100.00
56182;BME280;51963;46.052;14.544;2023-04-02T00:41:22;97351.09;;;4.82;100.00
56182;BME280;51963;46.052;14.544;2023-04-02T00:43:49;97351.59;;;5.01;100.00
56182;BME280;51963;46.052;14.544;2023-04-02T00:46:18;97342.09;;;5.00;100.00
56182;BME280;51963;46.052;14.544;2023-04-02T00:48:53;97343.56;;;4.79;100.00
56182;BME280;51963;46.052;14.544;2023-04-02T00:51:29;97342.13;;;4.53;100.00
56182;BME280;51963;46.052;14.544;2023-04-02T00:53:59;97366.34;;;4.55;100.00
56182;BME280;51963;46.052;14.544;2023-04-02T00:56:32;97370.88;;;4.62;100.00
56182;BME280;51963;46.052;14.544;2023-04-02T00:59:01;97363.72;;;4.55;100.00
56182;BME280;51963;46.052;14.544;2023-04-02T01:01:33;97356.44;;;4.43;100.00
56182;BME280;51963;46.052;14.544;2023-04-02T01:04:02;97372.00;;;4.36;100.00
56182;BME280;51963;46.052;14.544;2023-04-02T01:06:36;97368.59;;;4.35;100.00
56182;BME280;51963;46.052;14.544;2023-04-02T01:09:23;97356.06;;;4.22;100.00
56182;BME280;51963;46.052;14.544;2023-04-02T01:14:31;97362.13;;;4.23;100.00
56182;BME280;51963;46.052;14.544;2023-04-02T01:19:47;97368.16;;;4.23;100.00
56182;BME280;51963;46.052;14.544;2023-04-02T01:22:43;97354.66;;;4.11;100.00
56182;BME280;51963;46.052;14.544;2023-04-02T01:25:18;97374.25;;;4.47;100.00
56182;BME280;51963;46.052;14.544;2023-04-02T01:27:54;97367.25;;;4.39;100.00
56182;BME280;51963;46.052;14.544;2023-04-02T01:30:22;97368.13;;;4.32;100.00
56182;BME280;51963;46.052;14.544;2023-04-02T01:32:48;97363.66;;;4.40;100.00
56182;BME280;51963;46.052;14.544;2023-04-02T01:35:14;97335.47;;;4.19;100.00
56182;BME280;51963;46.052;14.544;2023-04-02T01:37:57;97376.91;;;4.39;100.00
56182;BME280;51963;46.052;14.544;2023-04-02T01:40:46;97368.75;;;4.34;100.00
56182;BME280;51963;46.052;14.544;2023-04-02T01:46:30;97364.25;;;4.19;100.00
56182;BME280;51963;46.052;14.544;2023-04-02T01:48:59;97366.53;;;4.22;100.00
56182;BME280;51963;46.052;14.544;2023-04-02T01:51:39;97358.00;;;4.29;100.00
56182;BME280;51963;46.052;14.544;2023-04-02T01:54:06;97362.59;;;4.26;100.00
56182;BME280;51963;46.052;14.544;2023-04-02T01:56:32;97370.47;;;4.18;100.00
56182;BME280;51963;46.052;14.544;2023-04-02T01:59:00;97363.50;;;4.10;100.00
56182;BME280;51963;46.052;14.544;2023-04-02T02:01:35;97373.81;;;4.04;100.00
56182;BME280;51963;46.052;14.544;2023-04-02T02:04:05;97372.19;;;4.03;100.00
56182;BME280;51963;46.052;14.544;2023-04-02T02:06:31;97378.91;;;3.97;100.00
56182;BME280;51963;46.052;14.544;2023-04-02T02:09:00;97378.44;;;3.93;100.00
56182;BME280;51963;46.052;14.544;2023-04-02T02:11:29;97375.50;;;3.88;100.00
56182;BME280;51963;46.052;14.544;2023-04-02T02:13:58;97364.44;;;3.78;100.00
56182;BME280;51963;46.052;14.544;2023-04-02T02:16:24;97378.78;;;3.90;100.00
56182;BME280;51963;46.052;14.544;2023-04-02T02:18:56;97388.91;;;3.93;100.00
56182;BME280;51963;46.052;14.544;2023-04-02T02:21:37;97385.81;;;3.90;100.00
56182;BME280;51963;46.052;14.544;2023-04-02T02:24:09;97379.31;;;3.77;100.00
56182;BME280;51963;46.052;14.544;2023-04-02T02:26:41;97375.38;;;3.81;100.00
56182;BME280;51963;46.052;14.544;2023-04-02T02:29:10;97384.16;;;3.97;100.00
56182;BME280;51963;46.052;14.544;2023-04-02T02:31:39;97380.00;;;3.71;100.00
56182;BME280;51963;46.052;14.544;2023-04-02T02:34:17;97383.06;;;3.75;100.00
56182;BME280;51963;46.052;14.544;2023-04-02T02:39:41;97389.00;;;3.60;100.00
56182;BME280;51963;46.052;14.544;2023-04-02T02:42:29;97385.28;;;3.46;100.00
56182;BME280;51963;46.052;14.544;2023-04-02T02:44:57;97396.06;;;3.51;100.00
56182;BME280;51963;46.052;14.544;2023-04-02T02:47:27;97389.69;;;3.46;100.00
56182;BME280;51963;46.052;14.544;2023-04-02T02:49:58;97389.69;;;3.46;100.00
56182;BME280;51963;46.052;14.544;2023-04-02T02:52:29;97392.13;;;3.47;100.00
56182;BME280;51963;46.052;14.544;2023-04-02T02:55:06;97399.34;;;3.45;100.00
56182;BME280;51963;46.052;14.544;2023-04-02T03:01:23;97410.28;;;3.41;100.00
56182;BME280;51963;46.052;14.544;2023-04-02T03:03:52;97411.44;;;3.38;100.00
56182;BME280;51963;46.052;14.544;2023-04-02T03:06:21;97413.06;;;3.39;100.00
56182;BME280;51963;46.052;14.544;2023-04-02T03:09:14;97413.06;;;3.39;100.00
56182;BME280;51963;46.052;14.544;2023-04-02T03:11:58;97417.13;;;3.50;100.00
56182;BME280;51963;46.052;14.544;2023-04-02T03:14:34;97407.00;;;3.38;100.00
56182;BME280;51963;46.052;14.544;2023-04-02T03:17:40;97407.66;;;3.32;100.00
56182;BME280;51963;46.052;14.544;2023-04-02T03:20:13;97414.84;;;3.30;100.00
56182;BME280;51963;46.052;14.544;2023-04-02T03:23:03;97400.16;;;3.21;100.00
56182;BME280;51963;46.052;14.544;2023-04-02T03:25:45;97419.28;;;3.21;100.00
56182;BME280;51963;46.052;14.544;2023-04-02T03:28:23;97422.22;;;3.18;100.00
56182;BME280;51963;46.052;14.544;2023-04-02T03:31:01;97420.06;;;3.30;100.00
56182;BME280;51963;46.052;14.544;2023-04-02T03:33:41;97422.03;;;3.28;100.00
56182;BME280;51963;46.052;14.544;2023-04-02T03:36:16;97425.47;;;3.29;100.00
56182;BME280;51963;46.052;14.544;2023-04-02T03:39:13;97429.06;;;3.28;100.00
56182;BME280;51963;46.052;14.544;2023-04-02T03:41:51;97431.84;;;3.26;100.00
56182;BME280;51963;46.052;14.544;2023-04-02T03:46:53;97423.03;;;3.19;100.00
56182;BME280;51963;46.052;14.544;2023-04-02T03:49:37;97430.53;;;3.22;100.00
56182;BME280;51963;46.052;14.544;2023-04-02T03:52:16;97434.94;;;3.21;100.00
56182;BME280;51963;46.052;14.544;2023-04-02T03:54:44;97433.47;;;3.19;100.00
56182;BME280;51963;46.052;14.544;2023-04-02T03:57:21;97441.31;;;3.27;100.00
56182;BME280;51963;46.052;14.544;2023-04-02T04:00:03;97424.97;;;3.25;100.00
56182;BME280;51963;46.052;14.544;2023-04-02T04:05:17;97433.78;;;3.49;100.00
56182;BME280;51963;46.052;14.544;2023-04-02T04:07:44;97416.47;;;3.40;100.00
56182;BME280;51963;46.052;14.544;2023-04-02T04:10:17;97430.50;;;3.47;100.00
56182;BME280;51963;46.052;14.544;2023-04-02T04:12:48;97434.09;;;3.46;100.00
56182;BME280;51963;46.052;14.544;2023-04-02T04:15:34;97441.94;;;3.54;100.00
56182;BME280;51963;46.052;14.544;2023-04-02T04:18:11;97447.50;;;3.51;100.00
56182;BME280;51963;46.052;14.544;2023-04-02T04:20:55;97454.00;;;3.63;100.00
56182;BME280;51963;46.052;14.544;2023-04-02T04:23:33;97464.47;;;3.55;100.00
56182;BME280;51963;46.052;14.544;2023-04-02T04:26:18;97468.41;;;3.51;100.00
56182;BME280;51963;46.052;14.544;2023-04-02T04:31:50;97475.59;;;3.49;100.00
56182;BME280;51963;46.052;14.544;2023-04-02T04:34:40;97477.84;;;3.77;100.00
56182;BME280;51963;46.052;14.544;2023-04-02T04:37:19;97468.34;;;3.84;100.00
56182;BME280;51963;46.052;14.544;2023-04-02T04:42:35;97480.44;;;3.93;100.00
56182;BME280;51963;46.052;14.544;2023-04-02T04:47:57;97479.78;;;3.83;100.00
56182;BME280;51963;46.052;14.544;2023-04-02T04:50:48;97480.31;;;3.78;100.00
56182;BME280;51963;46.052;14.544;2023-04-02T04:53:19;97477.50;;;3.80;100.00
56182;BME280;51963;46.052;14.544;2023-04-02T04:55:54;97480.97;;;3.80;100.00
56182;BME280;51963;46.052;14.544;2023-04-02T04:58:34;97488.28;;;3.85;100.00
56182;BME280;51963;46.052;14.544;2023-04-02T05:03:58;97494.34;;;3.94;100.00
56182;BME280;51963;46.052;14.544;2023-04-02T05:09:00;97497.41;;;4.06;100.00
56182;BME280;51963;46.052;14.544;2023-04-02T05:11:44;97494.81;;;3.97;100.00
56182;BME280;51963;46.052;14.544;2023-04-02T05:14:21;97503.63;;;4.05;100.00
56182;BME280;51963;46.052;14.544;2023-04-02T05:16:57;97502.63;;;4.06;100.00
56182;BME280;51963;46.052;14.544;2023-04-02T05:19:48;97518.94;;;4.16;100.00
56182;BME280;51963;46.052;14.544;2023-04-02T05:24:58;97511.25;;;4.31;100.00
56182;BME280;51963;46.052;14.544;2023-04-02T05:27:36;97519.56;;;4.26;100.00
56182;BME280;51963;46.052;14.544;2023-04-02T05:32:53;97523.69;;;4.69;100.00
56182;BME280;51963;46.052;14.544;2023-04-02T05:35:32;97526.56;;;4.82;100.00
56182;BME280;51963;46.052;14.544;2023-04-02T05:38:00;97521.56;;;4.96;100.00
56182;BME280;51963;46.052;14.544;2023-04-02T05:40:42;97523.00;;;5.07;100.00
56182;BME280;51963;46.052;14.544;2023-04-02T05:43:15;97524.72;;;5.14;100.00
56182;BME280;51963;46.052;14.544;2023-04-02T05:45:44;97531.91;;;5.44;100.00
56182;BME280;51963;46.052;14.544;2023-04-02T05:48:45;97539.56;;;5.54;100.00
56182;BME280;51963;46.052;14.544;2023-04-02T05:51:18;97525.19;;;5.50;100.00
56182;BME280;51963;46.052;14.544;2023-04-02T05:54:05;97540.19;;;5.56;100.00
56182;BME280;51963;46.052;14.544;2023-04-02T05:56:41;97540.28;;;5.86;100.00
56182;BME280;51963;46.052;14.544;2023-04-02T05:59:18;97524.34;;;5.87;100.00
56182;BME280;51963;46.052;14.544;2023-04-02T06:07:32;97543.88;;;6.08;100.00
56182;BME280;51963;46.052;14.544;2023-04-02T06:10:13;97534.78;;;5.96;100.00
56182;BME280;51963;46.052;14.544;2023-04-02T06:12:46;97552.84;;;5.91;100.00
56182;BME280;51963;46.052;14.544;2023-04-02T06:15:18;97555.53;;;5.82;100.00
56182;BME280;51963;46.052;14.544;2023-04-02T06:17:59;97547.69;;;5.82;100.00
56182;BME280;51963;46.052;14.544;2023-04-02T06:20:26;97564.06;;;6.08;100.00
56182;BME280;51963;46.052;14.544;2023-04-02T06:23:20;97566.84;;;6.06;100.00
56182;BME280;51963;46.052;14.544;2023-04-02T06:25:54;97561.78;;;6.05;100.00
56182;BME280;51963;46.052;14.544;2023-04-02T06:28:32;97562.28;;;6.23;100.00
56182;BME280;51963;46.052;14.544;2023-04-02T06:31:08;97559.47;;;6.40;100.00
56182;BME280;51963;46.052;14.544;2023-04-02T06:33:36;97566.16;;;6.57;100.00
56182;BME280;51963;46.052;14.544;2023-04-02T06:36:03;97563.34;;;6.74;100.00
56182;BME280;51963;46.052;14.544;2023-04-02T06:38:33;97583.34;;;7.05;100.00
56182;BME280;51963;46.052;14.544;2023-04-02T06:41:05;97567.09;;;7.16;100.00
56182;BME280;51963;46.052;14.544;2023-04-02T06:44:02;97575.91;;;7.30;100.00
56182;BME280;51963;46.052;14.544;2023-04-02T06:46:52;97583.56;;;7.47;100.00
56182;BME280;51963;46.052;14.544;2023-04-02T06:49:32;97587.28;;;7.53;100.00
56182;BME280;51963;46.052;14.544;2023-04-02T06:52:07;97589.91;;;7.74;100.00
56182;BME280;51963;46.052;14.544;2023-04-02T06:54:35;97584.13;;;7.86;100.00
56182;BME280;51963;46.052;14.544;2023-04-02T06:57:06;97593.03;;;7.85;100.00
56182;BME280;51963;46.052;14.544;2023-04-02T06:59:36;97594.47;;;7.87;100.00
56182;BME280;51963;46.052;14.544;2023-04-02T07:02:11;97596.16;;;7.95;100.00
56182;BME280;51963;46.052;14.544;2023-04-02T07:04:41;97583.94;;;7.66;100.00
56182;BME280;51963;46.052;14.544;2023-04-02T07:07:07;97603.94;;;7.82;100.00
56182;BME280;51963;46.052;14.544;2023-04-02T07:09:36;97600.44;;;7.96;100.00
56182;BME280;51963;46.052;14.544;2023-04-02T07:12:13;97600.09;;;7.84;100.00
56182;BME280;51963;46.052;14.544;2023-04-02T07:14:40;97592.66;;;7.66;100.00
56182;BME280;51963;46.052;14.544;2023-04-02T07:17:14;97613.25;;;7.62;100.00
56182;BME280;51963;46.052;14.544;2023-04-02T07:19:42;97614.78;;;7.72;100.00
56182;BME280;51963;46.052;14.544;2023-04-02T07:22:10;97602.56;;;7.64;100.00
56182;BME280;51963;46.052;14.544;2023-04-02T07:24:41;97611.34;;;7.71;100.00
56182;BME280;51963;46.052;14.544;2023-04-02T07:27:09;97613.09;;;7.86;100.00
56182;BME280;51963;46.052;14.544;2023-04-02T07:29:35;97592.03;;;7.86;100.00
56182;BME280;51963;46.052;14.544;2023-04-02T07:32:11;97614.06;;;8.06;100.00
56182;BME280;51963;46.052;14.544;2023-04-02T07:34:38;97616.16;;;8.11;100.00
56182;BME280;51963;46.052;14.544;2023-04-02T07:37:04;97615.31;;;8.11;100.00
56182;BME280;51963;46.052;14.544;2023-04-02T07:39:32;97628.44;;;8.32;100.00
56182;BME280;51963;46.052;14.544;2023-04-02T07:42:01;97627.19;;;8.50;100.00
56182;BME280;51963;46.052;14.544;2023-04-02T07:44:27;97632.16;;;8.66;100.00
56182;BME280;51963;46.052;14.544;2023-04-02T07:46:53;97614.16;;;8.77;100.00
56182;BME280;51963;46.052;14.544;2023-04-02T07:49:20;97633.22;;;9.14;100.00
56182;BME280;51963;46.052;14.544;2023-04-02T07:51:46;97636.56;;;8.94;100.00
56182;BME280;51963;46.052;14.544;2023-04-02T07:54:12;97636.56;;;8.94;100.00
56182;BME280;51963;46.052;14.544;2023-04-02T07:56:38;97643.03;;;9.34;100.00
56182;BME280;51963;46.052;14.544;2023-04-02T07:59:04;97648.56;;;9.52;100.00
56182;BME280;51963;46.052;14.544;2023-04-02T08:01:32;97645.34;;;9.64;100.00
56182;BME280;51963;46.052;14.544;2023-04-02T08:04:01;97621.09;;;9.27;100.00
56182;BME280;51963;46.052;14.544;2023-04-02T08:06:27;97639.84;;;9.52;100.00
56182;BME280;51963;46.052;14.544;2023-04-02T08:08:53;97639.53;;;10.09;100.00
56182;BME280;51963;46.052;14.544;2023-04-02T08:11:24;97640.94;;;10.38;100.00
56182;BME280;51963;46.052;14.544;2023-04-02T08:13:50;97643.00;;;10.63;100.00
56182;BME280;51963;46.052;14.544;2023-04-02T08:16:16;97644.03;;;11.28;100.00
56182;BME280;51963;46.052;14.544;2023-04-02T08:18:42;97642.06;;;11.94;100.00
56182;BME280;51963;46.052;14.544;2023-04-02T08:21:11;97650.94;;;12.13;100.00
56182;BME280;51963;46.052;14.544;2023-04-02T08:23:37;97653.44;;;12.96;100.00
56182;BME280;51963;46.052;14.544;2023-04-02T08:26:03;97654.91;;;12.73;100.00
56182;BME280;51963;46.052;14.544;2023-04-02T08:28:30;97642.31;;;13.74;100.00
56182;BME280;51963;46.052;14.544;2023-04-02T08:30:55;97640.44;;;13.62;96.25
56182;BME280;51963;46.052;14.544;2023-04-02T08:33:22;97659.34;;;13.85;90.88
56182;BME280;51963;46.052;14.544;2023-04-02T08:35:49;97663.91;;;13.10;92.71
56182;BME280;51963;46.052;14.544;2023-04-02T08:38:19;97640.91;;;13.22;92.14
56182;BME280;51963;46.052;14.544;2023-04-02T08:40:55;97657.03;;;13.88;90.29
56182;BME280;51963;46.052;14.544;2023-04-02T08:46:11;97670.03;;;14.08;92.41
56182;BME280;51963;46.052;14.544;2023-04-02T08:48:42;97675.94;;;13.80;92.71
56182;BME280;51963;46.052;14.544;2023-04-02T08:51:24;97670.94;;;14.02;89.56
56182;BME280;51963;46.052;14.544;2023-04-02T08:53:53;97677.31;;;13.33;91.40
56182;BME280;51963;46.052;14.544;2023-04-02T08:56:41;97676.53;;;13.82;92.80
56182;BME280;51963;46.052;14.544;2023-04-02T08:59:24;97678.72;;;14.28;86.95
56182;BME280;51963;46.052;14.544;2023-04-02T09:04:30;97671.28;;;15.08;83.87
56182;BME280;51963;46.052;14.544;2023-04-02T09:06:57;97674.31;;;15.40;80.27
56182;BME280;51963;46.052;14.544;2023-04-02T09:09:25;97676.47;;;15.96;77.54
56182;BME280;51963;46.052;14.544;2023-04-02T09:11:56;97674.72;;;16.36;73.14
56182;BME280;51963;46.052;14.544;2023-04-02T09:17:30;97677.50;;;15.95;73.88
56182;BME280;51963;46.052;14.544;2023-04-02T09:20:02;97677.84;;;15.05;78.21
56182;BME280;51963;46.052;14.544;2023-04-02T09:22:33;97681.13;;;15.48;78.05
56182;BME280;51963;46.052;14.544;2023-04-02T09:25:02;97687.44;;;15.59;75.83
56182;BME280;51963;46.052;14.544;2023-04-02T09:27:32;97665.53;;;15.28;76.12
56182;BME280;51963;46.052;14.544;2023-04-02T09:32:53;97690.44;;;16.04;74.40
56182;BME280;51963;46.052;14.544;2023-04-02T09:35:23;97681.00;;;16.13;70.99
56182;BME280;51963;46.052;14.544;2023-04-02T09:38:24;97679.53;;;16.05;70.68
56182;BME280;51963;46.052;14.544;2023-04-02T09:43:24;97678.56;;;16.11;71.03
56182;BME280;51963;46.052;14.544;2023-04-02T09:48:32;97679.28;;;18.03;60.55
56182;BME280;51963;46.052;14.544;2023-04-02T09:53:48;97678.47;;;18.03;58.84
56182;BME280;51963;46.052;14.544;2023-04-02T09:56:15;97678.16;;;19.02;55.54
56182;BME280;51963;46.052;14.544;2023-04-02T09:58:43;97682.44;;;19.67;52.73
56182;BME280;51963;46.052;14.544;2023-04-02T10:01:36;97678.25;;;20.54;48.89
56182;BME280;51963;46.052;14.544;2023-04-02T10:04:04;97664.81;;;20.70;49.25
56182;BME280;51963;46.052;14.544;2023-04-02T10:06:32;97673.59;;;21.82;44.22
56182;BME280;51963;46.052;14.544;2023-04-02T10:09:26;97671.56;;;20.20;45.97
56182;BME280;51963;46.052;14.544;2023-04-02T10:11:54;97664.75;;;21.21;43.25
56182;BME280;51963;46.052;14.544;2023-04-02T10:14:29;97658.16;;;21.48;40.73
56182;BME280;51963;46.052;14.544;2023-04-02T10:17:21;97662.94;;;20.75;42.20
56182;BME280;51963;46.052;14.544;2023-04-02T10:19:49;97665.66;;;20.80;44.48
56182;BME280;51963;46.052;14.544;2023-04-02T10:22:20;97640.63;;;20.85;42.61
56182;BME280;51963;46.052;14.544;2023-04-02T10:24:46;97657.88;;;20.17;41.13
56182;BME280;51963;46.052;14.544;2023-04-02T10:27:33;97672.81;;;19.02;44.20
56182;BME280;51963;46.052;14.544;2023-04-02T10:31:21;97659.88;;;19.53;44.00
56182;BME280;51963;46.052;14.544;2023-04-02T10:38:15;97656.59;;;19.30;44.39
56182;BME280;51963;46.052;14.544;2023-04-02T10:51:49;97647.78;;;22.80;37.08
56182;BME280;51963;46.052;14.544;2023-04-02T10:59:56;97648.88;;;25.18;35.28
56182;BME280;51963;46.052;14.544;2023-04-02T11:04:53;97636.94;;;23.34;34.79
56182;BME280;51963;46.052;14.544;2023-04-02T11:07:23;97631.09;;;24.09;34.63
56182;BME280;51963;46.052;14.544;2023-04-02T11:09:55;97623.06;;;24.04;32.52
56182;BME280;51963;46.052;14.544;2023-04-02T11:12:48;97628.75;;;24.35;33.96
56182;BME280;51963;46.052;14.544;2023-04-02T11:15:18;97632.25;;;24.83;33.02
56182;BME280;51963;46.052;14.544;2023-04-02T11:17:45;97632.31;;;23.78;33.65
56182;BME280;51963;46.052;14.544;2023-04-02T11:23:18;97632.41;;;26.39;29.04
56182;BME280;51963;46.052;14.544;2023-04-02T11:25:45;97606.25;;;26.97;28.03
56182;BME280;51963;46.052;14.544;2023-04-02T11:28:25;97627.13;;;26.88;28.67
56182;BME280;51963;46.052;14.544;2023-04-02T11:30:53;97620.53;;;26.26;25.56
56182;BME280;51963;46.052;14.544;2023-04-02T11:33:39;97618.91;;;23.73;29.86
56182;BME280;51963;46.052;14.544;2023-04-02T11:39:46;97615.53;;;21.76;29.23
56182;BME280;51963;46.052;14.544;2023-04-02T11:44:42;97629.16;;;23.08;30.30
56182;BME280;51963;46.052;14.544;2023-04-02T11:47:17;97619.78;;;22.17;30.50
56182;BME280;51963;46.052;14.544;2023-04-02T11:52:23;97618.13;;;23.29;28.01
56182;BME280;51963;46.052;14.544;2023-04-02T12:09:42;97586.53;;;23.35;28.13
56182;BME280;51963;46.052;14.544;2023-04-02T12:12:24;97602.13;;;23.13;28.38
56182;BME280;51963;46.052;14.544;2023-04-02T12:14:55;97602.19;;;23.90;28.71
56182;BME280;51963;46.052;14.544;2023-04-02T12:22:37;97584.28;;;25.67;27.03
56182;BME280;51963;46.052;14.544;2023-04-02T12:25:27;97572.41;;;26.23;26.12
56182;BME280;51963;46.052;14.544;2023-04-02T12:30:30;97582.66;;;27.06;25.56
56182;BME280;51963;46.052;14.544;2023-04-02T12:32:55;97572.69;;;26.44;27.51
56182;BME280;51963;46.052;14.544;2023-04-02T12:35:54;97571.72;;;27.82;25.36
56182;BME280;51963;46.052;14.544;2023-04-02T12:38:33;97574.03;;;28.75;22.78
56182;BME280;51963;46.052;14.544;2023-04-02T12:41:01;97564.81;;;29.49;23.25
56182;BME280;51963;46.052;14.544;2023-04-02T12:43:32;97548.69;;;30.57;21.13
56182;BME280;51963;46.052;14.544;2023-04-02T12:46:03;97561.56;;;29.89;21.80
56182;BME280;51963;46.052;14.544;2023-04-02T12:48:30;97557.41;;;30.50;21.32
56182;BME280;51963;46.052;14.544;2023-04-02T12:50:57;97561.13;;;31.45;19.44
56182;BME280;51963;46.052;14.544;2023-04-02T12:53:26;97560.91;;;31.66;20.47
56182;BME280;51963;46.052;14.544;2023-04-02T12:55:54;97558.34;;;30.79;20.41
56182;BME280;51963;46.052;14.544;2023-04-02T12:58:28;97552.75;;;30.51;21.63
56182;BME280;51963;46.052;14.544;2023-04-02T13:01:14;97558.63;;;29.94;21.19
56182;BME280;51963;46.052;14.544;2023-04-02T13:03:43;97553.81;;;29.79;22.01
56182;BME280;51963;46.052;14.544;2023-04-02T13:06:23;97556.38;;;27.60;22.16
56182;BME280;51963;46.052;14.544;2023-04-02T13:08:51;97544.69;;;28.51;22.11
56182;BME280;51963;46.052;14.544;2023-04-02T13:11:16;97546.59;;;31.57;19.50
56182;BME280;51963;46.052;14.544;2023-04-02T13:13:44;97544.47;;;30.97;20.40
56182;BME280;51963;46.052;14.544;2023-04-02T13:18:38;97528.91;;;30.85;19.52
56182;BME280;51963;46.052;14.544;2023-04-02T13:21:25;97537.88;;;29.68;21.13
56182;BME280;51963;46.052;14.544;2023-04-02T13:23:52;97535.19;;;28.66;22.03
56182;BME280;51963;46.052;14.544;2023-04-02T13:29:00;97520.75;;;29.04;22.52
56182;BME280;51963;46.052;14.544;2023-04-02T13:31:28;97536.69;;;30.24;20.89
56182;BME280;51963;46.052;14.544;2023-04-02T13:33:54;97530.69;;;28.70;21.94
56182;BME280;51963;46.052;14.544;2023-04-02T13:36:20;97536.44;;;28.77;21.89
56182;BME280;51963;46.052;14.544;2023-04-02T13:38:45;97522.66;;;30.59;21.87
56182;BME280;51963;46.052;14.544;2023-04-02T13:41:35;97536.00;;;30.15;21.89
56182;BME280;51963;46.052;14.544;2023-04-02T13:44:03;97522.25;;;28.24;25.57
56182;BME280;51963;46.052;14.544;2023-04-02T13:46:31;97525.72;;;27.68;24.01
56182;BME280;51963;46.052;14.544;2023-04-02T13:48:57;97521.03;;;29.11;21.85
56182;BME280;51963;46.052;14.544;2023-04-02T13:51:42;97529.13;;;26.40;23.86
56182;BME280;51963;46.052;14.544;2023-04-02T13:54:16;97524.41;;;28.48;21.82
56182;BME280;51963;46.052;14.544;2023-04-02T13:56:43;97514.19;;;27.01;22.94
56182;BME280;51963;46.052;14.544;2023-04-02T13:59:09;97515.09;;;25.01;25.68
56182;BME280;51963;46.052;14.544;2023-04-02T14:01:38;97508.50;;;23.00;28.01
56182;BME280;51963;46.052;14.544;2023-04-02T14:04:05;97498.75;;;25.89;25.00
56182;BME280;51963;46.052;14.544;2023-04-02T14:07:05;97511.19;;;28.38;22.79
56182;BME280;51963;46.052;14.544;2023-04-02T14:10:03;97505.94;;;27.67;23.99
56182;BME280;51963;46.052;14.544;2023-04-02T14:12:48;97507.81;;;27.67;22.69
56182;BME280;51963;46.052;14.544;2023-04-02T14:20:32;97502.66;;;29.84;21.38
56182;BME280;51963;46.052;14.544;2023-04-02T14:26:07;97505.00;;;29.74;21.89
56182;BME280;51963;46.052;14.544;2023-04-02T14:29:01;97514.00;;;28.03;22.49
56182;BME280;51963;46.052;14.544;2023-04-02T14:31:35;97508.63;;;29.23;23.77
56182;BME280;51963;46.052;14.544;2023-04-02T14:36:59;97509.69;;;25.01;26.98
56182;BME280;51963;46.052;14.544;2023-04-02T14:48:19;97489.31;;;26.49;25.01
56182;BME280;51963;46.052;14.544;2023-04-02T14:50:53;97498.50;;;23.58;27.96
56182;BME280;51963;46.052;14.544;2023-04-02T14:53:26;97506.91;;;21.72;30.08
56182;BME280;51963;46.052;14.544;2023-04-02T14:55:56;97503.66;;;20.70;33.24
56182;BME280;51963;46.052;14.544;2023-04-02T14:58:27;97503.84;;;20.13;33.03
56182;BME280;51963;46.052;14.544;2023-04-02T15:00:59;97512.16;;;20.16;33.05
56182;BME280;51963;46.052;14.544;2023-04-02T15:04:00;97516.69;;;19.23;35.66
56182;BME280;51963;46.052;14.544;2023-04-02T15:06:41;97502.91;;;18.24;37.81
56182;BME280;51963;46.052;14.544;2023-04-02T15:09:19;97521.81;;;17.80;38.14
56182;BME280;51963;46.052;14.544;2023-04-02T15:11:52;97525.25;;;17.42;38.90
56182;BME280;51963;46.052;14.544;2023-04-02T15:14:31;97529.28;;;16.73;41.26
56182;BME280;51963;46.052;14.544;2023-04-02T15:16:59;97519.84;;;16.43;42.74
56182;BME280;51963;46.052;14.544;2023-04-02T15:19:25;97513.19;;;16.23;43.87
56182;BME280;51963;46.052;14.544;2023-04-02T15:27:47;97542.03;;;16.26;43.31
56182;BME280;51963;46.052;14.544;2023-04-02T15:30:21;97534.88;;;16.94;42.54
56182;BME280;51963;46.052;14.544;2023-04-02T15:32:50;97544.28;;;19.13;37.77
56182;BME280;51963;46.052;14.544;2023-04-02T15:35:39;97545.03;;;21.79;32.63
56182;BME280;51963;46.052;14.544;2023-04-02T15:38:28;97545.75;;;21.00;33.58
56182;BME280;51963;46.052;14.544;2023-04-02T15:52:21;97560.69;;;17.60;40.88
56182;BME280;51963;46.052;14.544;2023-04-02T16:00:21;97578.00;;;15.32;60.42
56182;BME280;51963;46.052;14.544;2023-04-02T16:06:30;97563.00;;;15.14;68.60
56182;BME280;51963;46.052;14.544;2023-04-02T16:11:14;97588.00;;;14.24;71.82
56182;BME280;51963;46.052;14.544;2023-04-02T16:13:41;97587.63;;;14.20;69.06
56182;BME280;51963;46.052;14.544;2023-04-02T16:21:22;97579.56;;;14.39;59.45
56182;BME280;51963;46.052;14.544;2023-04-02T16:23:48;97602.22;;;14.53;56.38
56182;BME280;51963;46.052;14.544;2023-04-02T16:26:40;97601.16;;;14.55;56.15
56182;BME280;51963;46.052;14.544;2023-04-02T16:32:01;97608.47;;;14.47;53.38